New Helena, Nebraska
Current Conditions -  °F | °C
As of 5:21 PM on Sunday 21 Dec 2014 (Local Time) from KBBW Reporting Station
Overcast Overcast  
Wind Chill: 31°   Ceiling: 800
Heat Index: 37°   Visibility: 7mi
Dew Point: 34°   Wind: 8mph
Humidity: 89%   Direction: 110°ESE
Pressure: 29.51"   Gusts: NA
Location:  41.6612°N, 99.7844°W
Report Text: KBBW 212321Z AUTO 11007KT 7SM BKN008 OVC070 03/01 A2951 RMK AO2 T00280011
Loading
Personal Weather Stations






























Interactive Weather Map New forecast layout! Learn more

10-Day Weather Forecast

Advertisements
Track Severe Weather on mobile